Time;durP1;ratioP1;P1;durP2;ratioP2;P2;SDS_P1;SDS_P2;PMS_P1;PMS_P2;Temp;Humidity;BMP_temperature;BMP_pressure;BME280_temperature;BME280_humidity;BME280_pressure;Samples;Min_cycle;Max_cycle;Signal;HPM_P1;HPM_P2
2022/08/03 00:00:54;;;;;;;3.20;1.95;;;18.20;99.90;;;;;;4983497;28;20050;-79
2022/08/03 00:06:53;;;;;;;4.50;2.10;;;18.20;99.90;;;;;;4986714;28;20050;-79
2022/08/03 00:09:34;;;;;;;4.63;2.65;;;18.10;99.90;;;;;;5000692;28;20107;-79
2022/08/03 00:12:35;;;;;;;6.00;2.53;;;18.10;99.90;;;;;;4982332;28;20050;-80
2022/08/03 00:18:58;;;;;;;5.85;2.70;;;18.00;99.90;;;;;;4997210;28;20448;-79
2022/08/03 00:22:12;;;;;;;4.53;2.80;;;17.90;99.90;;;;;;4997840;28;20065;-79
2022/08/03 00:24:52;;;;;;;4.47;2.60;;;17.90;99.90;;;;;;4995337;28;20073;-79
2022/08/03 00:28:28;;;;;;;6.10;2.90;;;17.80;99.90;;;;;;4982149;28;20061;-80
2022/08/03 00:31:21;;;;;;;5.63;3.30;;;17.70;99.90;;;;;;4948074;28;20046;-80
2022/08/03 00:35:01;;;;;;;4.03;3.00;;;17.70;99.90;;;;;;4978659;28;20096;-81
2022/08/03 00:37:55;;;;;;;;;;;;;;;;;;;;;
2022/08/03 00:40:22;;;;;;;3.70;2.80;;;17.70;99.90;;;;;;4977115;28;20514;-78
2022/08/03 00:43:18;;;;;;;4.88;2.45;;;17.80;99.90;;;;;;4987994;28;20045;-78
2022/08/03 00:49:14;;;;;;;5.20;2.70;;;17.70;99.90;;;;;;5002430;28;20042;-80
2022/08/03 00:51:50;;;;;;;4.45;2.40;;;17.70;99.90;;;;;;4985246;28;20068;-79
2022/08/03 00:54:32;;;;;;;6.03;2.50;;;17.60;99.90;;;;;;4987795;28;20072;-80
2022/08/03 00:57:23;;;;;;;;;;;17.50;99.90;;;;;;4982025;28;20030;-80
2022/08/03 01:00:27;;;;;;;5.93;3.00;;;17.50;99.90;;;;;;4979089;28;19917;-79
2022/08/03 01:03:25;;;;;;;7.18;3.20;;;17.40;99.90;;;;;;4982892;28;20035;-80
2022/08/03 01:09:19;;;;;;;5.18;2.50;;;17.40;99.90;;;;;;4986003;28;20442;-81
2022/08/03 01:12:46;;;;;;;5.40;2.97;;;17.30;99.90;;;;;;4986105;28;20030;-80
2022/08/03 01:16:25;;;;;;;4.60;2.80;;;17.20;99.90;;;;;;4918909;28;20118;-81
2022/08/03 01:19:41;;;;;;;4.90;2.60;;;17.20;99.90;;;;;;4968738;28;20046;-80
2022/08/03 01:23:05;;;;;;;5.82;2.70;;;17.10;99.90;;;;;;4956818;29;20043;-80
2022/08/03 01:33:52;;;;;;;8.27;3.63;;;17.00;99.90;;;;;;4957682;29;20085;-79
2022/08/03 01:44:26;;;;;;;7.35;3.67;;;16.90;99.90;;;;;;4909759;29;20043;-81
2022/08/03 01:47:46;;;;;;;6.50;3.40;;;16.90;99.90;;;;;;4862272;29;20044;-81
2022/08/03 01:51:15;;;;;;;7.57;3.50;;;16.90;99.90;;;;;;4901872;29;20409;-80
2022/08/03 01:57:18;;;;;;;6.90;3.25;;;16.80;99.90;;;;;;5296780;23;20054;-80
2022/08/03 02:04:32;;;;;;;6.45;3.10;;;16.70;99.90;;;;;;5028970;28;20033;-81
2022/08/03 02:09:49;;;;;;;4.78;3.10;;;16.70;99.90;;;;;;5009724;28;20042;-81
2022/08/03 02:12:16;;;;;;;5.80;3.13;;;16.60;99.90;;;;;;4978529;28;20057;-81
2022/08/03 02:14:44;;;;;;;6.70;3.15;;;16.60;99.90;;;;;;5015908;28;20039;-80
2022/08/03 02:17:12;;;;;;;6.70;3.30;;;16.60;99.90;;;;;;4971001;28;20461;-81
2022/08/03 02:19:39;;;;;;;6.40;3.28;;;16.60;99.90;;;;;;4975296;28;20034;-81
2022/08/03 02:22:10;;;;;;;5.05;3.10;;;16.60;99.90;;;;;;4992198;28;20042;-81
2022/08/03 02:24:35;;;;;;;4.80;2.88;;;16.50;99.90;;;;;;4986680;28;20046;-81
2022/08/03 02:27:06;;;;;;;7.25;3.65;;;16.50;99.90;;;;;;4972158;28;20041;-81
2022/08/03 02:29:34;;;;;;;8.35;3.17;;;16.50;99.90;;;;;;4976747;28;20052;-81
2022/08/03 02:32:03;;;;;;;9.95;3.53;;;16.50;99.90;;;;;;4976587;28;20402;-81
2022/08/03 02:34:30;;;;;;;5.22;3.65;;;16.50;99.90;;;;;;5002310;28;20046;-81
2022/08/03 02:36:59;;;;;;;4.72;3.25;;;16.50;99.90;;;;;;4973928;28;20523;-81
2022/08/03 02:39:28;;;;;;;5.82;3.38;;;16.50;99.90;;;;;;4974663;28;20053;-81
2022/08/03 02:42:01;;;;;;;5.47;3.53;;;16.50;99.90;;;;;;4984103;28;20034;-81
2022/08/03 02:44:28;;;;;;;7.20;3.00;;;16.50;99.90;;;;;;4988508;28;20041;-81
2022/08/03 02:47:02;;;;;;;5.00;3.30;;;16.50;99.90;;;;;;4991078;28;20808;-82
2022/08/03 02:49:29;;;;;;;8.27;3.13;;;16.50;99.90;;;;;;4977945;28;20092;-81
2022/08/03 02:51:56;;;;;;;5.53;3.30;;;16.50;99.90;;;;;;4977582;28;20042;-81
2022/08/03 02:54:24;;;;;;;5.82;3.40;;;16.50;99.90;;;;;;4986039;28;20084;-81
2022/08/03 02:56:52;;;;;;;5.93;3.33;;;16.50;99.90;;;;;;4966951;28;20050;-81
2022/08/03 02:59:19;;;;;;;7.45;3.45;;;16.50;99.90;;;;;;4977680;28;20450;-81
2022/08/03 03:01:45;;;;;;;8.80;3.47;;;16.50;99.90;;;;;;4975361;28;20065;-81
2022/08/03 03:04:11;;;;;;;7.25;3.15;;;16.50;99.90;;;;;;4985929;28;20053;-81
2022/08/03 03:06:39;;;;;;;8.52;3.25;;;16.50;99.90;;;;;;4991469;28;20125;-80
2022/08/03 03:09:05;;;;;;;6.63;3.00;;;16.50;99.90;;;;;;4977381;28;20088;-81
2022/08/03 03:11:31;;;;;;;7.10;3.10;;;16.60;99.90;;;;;;4992197;28;20405;-80
2022/08/03 03:13:58;;;;;;;3.90;2.40;;;16.60;99.90;;;;;;5001468;28;20037;-80
2022/08/03 03:16:26;;;;;;;4.47;2.88;;;16.60;99.90;;;;;;4991559;28;20909;-80
2022/08/03 03:18:53;;;;;;;5.97;3.00;;;16.60;99.90;;;;;;4995286;28;20040;-80
2022/08/03 03:21:20;;;;;;;5.85;2.55;;;16.60;99.90;;;;;;4980647;28;20034;-80
2022/08/03 03:23:47;;;;;;;5.95;2.95;;;16.60;99.90;;;;;;5006556;28;20046;-80
2022/08/03 03:26:14;;;;;;;8.70;2.90;;;16.60;99.90;;;;;;4991738;28;20469;-81
2022/08/03 03:28:40;;;;;;;8.77;3.08;;;16.70;99.90;;;;;;4979087;28;20050;-81
2022/08/03 03:31:06;;;;;;;6.40;3.03;;;16.70;99.90;;;;;;4997692;28;20049;-81
2022/08/03 03:33:34;;;;;;;8.02;3.13;;;16.70;99.90;;;;;;4992657;28;20506;-81
2022/08/03 03:36:00;;;;;;;6.75;2.85;;;16.60;99.90;;;;;;4981787;28;20041;-81
2022/08/03 03:38:26;;;;;;;5.72;2.88;;;16.60;99.90;;;;;;4971263;28;20088;-80
2022/08/03 03:40:52;;;;;;;8.60;3.13;;;16.70;99.90;;;;;;4981514;28;20034;-80
2022/08/03 03:43:18;;;;;;;7.65;3.20;;;16.60;99.90;;;;;;4993128;28;20063;-81
2022/08/03 03:45:45;;;;;;;9.05;3.17;;;16.70;99.90;;;;;;4977363;28;20169;-81
2022/08/03 03:48:11;;;;;;;8.40;3.13;;;16.60;99.90;;;;;;4990845;28;20053;-80
2022/08/03 03:50:40;;;;;;;5.32;3.30;;;16.70;99.90;;;;;;4978056;28;20065;-80
2022/08/03 03:53:09;;;;;;;8.25;3.40;;;16.70;99.90;;;;;;4976981;28;20030;-81
2022/08/03 03:55:36;;;;;;;5.95;3.03;;;16.70;99.90;;;;;;5005287;28;20580;-81
2022/08/03 03:58:02;;;;;;;7.22;3.45;;;16.70;99.90;;;;;;4997288;28;20064;-82
2022/08/03 04:00:29;;;;;;;10.55;3.88;;;16.70;99.90;;;;;;4997615;28;20473;-81
2022/08/03 04:02:55;;;;;;;4.57;3.00;;;16.60;99.90;;;;;;4995205;28;20065;-81
2022/08/03 04:11:23;;;;;;;6.82;3.50;;;16.70;99.90;;;;;;4994525;28;20096;-81
2022/08/03 04:13:56;;;;;;;7.43;3.30;;;16.70;99.90;;;;;;4977490;28;20096;-81
2022/08/03 04:16:26;;;;;;;6.15;3.95;;;16.70;99.90;;;;;;5014506;28;20440;-81
2022/08/03 04:19:01;;;;;;;5.85;3.47;;;16.70;99.90;;;;;;4996328;28;20038;-81
2022/08/03 04:21:29;;;;;;;4.28;3.05;;;16.70;99.90;;;;;;4981826;28;20045;-81
2022/08/03 04:24:00;;;;;;;5.47;3.70;;;16.60;99.90;;;;;;4976220;28;20084;-81
2022/08/03 04:26:30;;;;;;;6.13;3.47;;;16.60;99.90;;;;;;4976431;28;20120;-81
2022/08/03 04:28:57;;;;;;;6.15;3.95;;;16.70;99.90;;;;;;4972336;28;20045;-81
2022/08/03 04:31:24;;;;;;;8.73;3.78;;;16.70;99.90;;;;;;4980488;28;20081;-81
2022/08/03 04:33:52;;;;;;;6.22;3.38;;;16.70;99.90;;;;;;4979333;28;20053;-80
2022/08/03 04:36:22;;;;;;;4.50;3.53;;;16.70;99.90;;;;;;4978931;28;20045;-80
2022/08/03 04:39:26;;;;;;;6.45;3.58;;;16.70;99.90;;;;;;4973128;28;20502;-80
2022/08/03 04:42:00;;;;;;;7.45;3.72;;;16.70;99.90;;;;;;4950012;28;20045;-81
2022/08/03 04:44:27;;;;;;;7.15;3.47;;;16.80;99.90;;;;;;4990491;28;20050;-81
2022/08/03 04:46:55;;;;;;;7.32;3.90;;;16.80;99.90;;;;;;4996468;28;20390;-81
2022/08/03 04:49:21;;;;;;;6.55;3.60;;;16.80;99.90;;;;;;4979427;28;20409;-81
2022/08/03 04:51:48;;;;;;;6.30;3.58;;;16.90;99.90;;;;;;4971742;28;20046;-81
2022/08/03 04:54:15;;;;;;;8.30;3.42;;;16.90;99.90;;;;;;4987099;28;20049;-81
2022/08/03 04:56:41;;;;;;;5.32;3.55;;;16.90;99.90;;;;;;4988154;28;20074;-80
2022/08/03 04:59:07;;;;;;;7.20;4.00;;;16.90;99.90;;;;;;4996091;28;20073;-81
2022/08/03 05:01:33;;;;;;;5.45;3.70;;;17.00;99.90;;;;;;4982060;28;20076;-81
2022/08/03 05:03:59;;;;;;;6.43;3.70;;;17.00;99.90;;;;;;4992268;28;20081;-81
2022/08/03 05:06:24;;;;;;;8.43;3.53;;;17.10;99.90;;;;;;4975507;28;20042;-81
2022/08/03 05:08:50;;;;;;;8.27;3.50;;;17.10;99.90;;;;;;4979456;28;20448;-81
2022/08/03 05:11:16;;;;;;;8.57;3.67;;;17.30;99.90;;;;;;4981767;28;20046;-81
2022/08/03 05:13:43;;;;;;;8.05;3.72;;;17.60;99.90;;;;;;4986318;28;20780;-80
2022/08/03 05:16:08;;;;;;;6.70;3.63;;;17.80;99.90;;;;;;4995109;28;20161;-80
2022/08/03 05:18:34;;;;;;;9.02;4.15;;;18.10;99.90;;;;;;4979512;28;20180;-80
2022/08/03 05:21:00;;;;;;;9.32;3.65;;;18.40;99.90;;;;;;4988497;28;20038;-80
2022/08/03 05:23:26;;;;;;;7.68;3.22;;;18.60;99.90;;;;;;4994756;28;20476;-81
2022/08/03 05:25:52;;;;;;;7.10;3.30;;;18.80;99.90;;;;;;4998024;28;20064;-81
2022/08/03 05:28:17;;;;;;;7.10;2.95;;;18.90;99.90;;;;;;4997600;28;20038;-81
2022/08/03 05:30:43;;;;;;;7.40;2.78;;;19.00;99.90;;;;;;5003663;28;20038;-81
2022/08/03 05:33:09;;;;;;;10.57;2.92;;;19.10;99.90;;;;;;5005539;28;20101;-81
2022/08/03 05:35:37;;;;;;;8.98;3.47;;;19.20;99.90;;;;;;4992604;28;20038;-81
2022/08/03 05:38:04;;;;;;;6.50;3.15;;;19.20;99.90;;;;;;4983222;28;20034;-81
2022/08/03 05:40:30;;;;;;;8.20;3.72;;;19.30;99.90;;;;;;4979056;28;20071;-81
2022/08/03 05:42:56;;;;;;;6.53;3.28;;;19.30;99.90;;;;;;4978717;28;20370;-81
2022/08/03 05:45:22;;;;;;;5.65;3.00;;;19.30;99.90;;;;;;4997309;28;20037;-81
2022/08/03 05:47:49;;;;;;;5.13;3.15;;;19.30;99.90;;;;;;4993636;28;20034;-81
2022/08/03 05:50:18;;;;;;;9.38;4.05;;;19.20;99.90;;;;;;5000513;28;20418;-81
2022/08/03 05:52:43;;;;;;;7.22;3.55;;;19.20;99.90;;;;;;4977638;28;20121;-81
2022/08/03 05:55:10;;;;;;;6.70;3.35;;;19.20;99.90;;;;;;4994833;28;20126;-81
2022/08/03 05:57:36;;;;;;;6.13;3.15;;;19.20;99.90;;;;;;4980893;28;20044;-81
2022/08/03 06:00:09;;;;;;;7.28;3.45;;;19.20;99.90;;;;;;4982362;28;20030;-81
2022/08/03 06:02:35;;;;;;;8.32;3.85;;;19.20;99.90;;;;;;4972963;28;20049;-81
2022/08/03 06:05:01;;;;;;;7.40;3.58;;;19.20;99.90;;;;;;4977208;28;20030;-82
2022/08/03 06:07:27;;;;;;;8.30;3.25;;;19.20;99.90;;;;;;4979620;28;20042;-81
2022/08/03 06:09:52;;;;;;;7.90;3.65;;;19.30;99.90;;;;;;4978075;28;20038;-80
2022/08/03 06:12:18;;;;;;;7.07;3.50;;;19.30;99.90;;;;;;4990854;28;20452;-80
2022/08/03 06:14:44;;;;;;;8.20;3.78;;;19.40;99.90;;;;;;4986289;28;20560;-81
2022/08/03 06:17:09;;;;;;;8.05;3.40;;;19.40;99.90;;;;;;4994639;28;20334;-80
2022/08/03 06:19:35;;;;;;;7.43;3.35;;;19.40;99.90;;;;;;4994515;28;20155;-83
2022/08/03 06:22:00;;;;;;;9.13;3.50;;;19.50;99.90;;;;;;4976976;28;20042;-81
2022/08/03 06:24:26;;;;;;;9.77;3.55;;;19.60;99.90;;;;;;4978296;28;20053;-81
2022/08/03 06:26:51;;;;;;;9.90;3.80;;;19.60;99.90;;;;;;4978641;28;20457;-81
2022/08/03 06:29:17;;;;;;;10.05;3.75;;;19.60;99.90;;;;;;4973757;28;20039;-81
2022/08/03 06:31:43;;;;;;;9.20;3.22;;;19.70;99.90;;;;;;4991430;28;20100;-81
2022/08/03 06:34:08;;;;;;;7.70;3.30;;;19.80;99.90;;;;;;4982742;28;20038;-81
2022/08/03 06:36:34;;;;;;;9.35;3.72;;;19.80;99.90;;;;;;4997037;28;20034;-81
2022/08/03 06:39:00;;;;;;;6.63;3.65;;;19.80;99.90;;;;;;4981426;28;20056;-80
2022/08/03 06:41:26;;;;;;;9.30;3.78;;;19.80;99.90;;;;;;4995058;28;20440;-80
2022/08/03 06:43:53;;;;;;;7.97;3.58;;;19.80;99.90;;;;;;4994239;28;20548;-79
2022/08/03 06:46:19;;;;;;;9.70;4.25;;;19.90;99.90;;;;;;4978204;28;20556;-81
2022/08/03 06:48:44;;;;;;;7.65;3.58;;;19.80;99.90;;;;;;4993663;28;20069;-82
2022/08/03 06:51:10;;;;;;;10.45;3.70;;;19.90;99.90;;;;;;5005549;28;20045;-81
2022/08/03 06:53:36;;;;;;;9.80;3.80;;;19.90;99.90;;;;;;5015494;28;20128;-81
2022/08/03 06:56:04;;;;;;;9.93;3.47;;;19.90;99.90;;;;;;4990603;28;20034;-81
2022/08/03 06:58:30;;;;;;;9.43;3.67;;;20.00;99.90;;;;;;4994760;28;20212;-81
2022/08/03 07:00:55;;;;;;;8.35;3.75;;;20.10;99.90;;;;;;5001492;28;20120;-80
2022/08/03 07:03:21;;;;;;;8.98;3.58;;;20.10;99.90;;;;;;4986995;28;20037;-80
2022/08/03 07:05:47;;;;;;;8.32;3.53;;;20.10;99.90;;;;;;4998095;28;20034;-80
2022/08/03 07:08:13;;;;;;;7.18;3.70;;;20.20;99.90;;;;;;4995112;28;20385;-81
2022/08/03 07:10:39;;;;;;;9.32;3.53;;;20.20;99.90;;;;;;4986933;28;20042;-80
2022/08/03 07:13:05;;;;;;;11.02;3.50;;;20.30;99.90;;;;;;4998235;28;20038;-81
2022/08/03 07:15:31;;;;;;;7.70;3.40;;;20.30;99.90;;;;;;4981683;28;20048;-80
2022/08/03 07:17:57;;;;;;;11.75;3.58;;;20.40;99.90;;;;;;4981482;28;20117;-80
2022/08/03 07:20:23;;;;;;;8.40;2.95;;;20.50;99.90;;;;;;4981025;28;20580;-81
2022/08/03 07:22:49;;;;;;;10.13;3.33;;;20.50;99.90;;;;;;4985458;28;20462;-81
2022/08/03 07:25:14;;;;;;;9.93;3.38;;;20.50;99.90;;;;;;4977546;28;20403;-81
2022/08/03 07:27:47;;;;;;;10.00;3.40;;;20.60;99.90;;;;;;4962018;28;20529;-80
2022/08/03 07:30:14;;;;;;;10.40;3.17;;;20.70;99.90;;;;;;4956061;28;20552;-81
2022/08/03 07:32:40;;;;;;;13.88;3.50;;;20.70;99.90;;;;;;4996133;28;20042;-80
2022/08/03 07:35:07;;;;;;;10.38;3.20;;;20.80;99.90;;;;;;4974575;28;20458;-79
2022/08/03 07:37:33;;;;;;;7.53;2.80;;;20.80;99.90;;;;;;4976574;28;20456;-81
2022/08/03 07:40:00;;;;;;;9.50;3.30;;;20.80;99.90;;;;;;4954699;28;20037;-80
2022/08/03 07:42:27;;;;;;;9.23;3.08;;;20.90;99.90;;;;;;4960693;28;20073;-80
2022/08/03 07:44:53;;;;;;;8.10;2.78;;;20.90;99.90;;;;;;4978117;28;20070;-81
2022/08/03 07:47:27;;;;;;;12.32;3.67;;;21.00;99.90;;;;;;4959923;28;20042;-81
2022/08/03 07:49:53;;;;;;;9.27;3.00;;;21.00;99.90;;;;;;4957624;28;20034;-81
2022/08/03 07:55:05;;;;;;;7.70;3.10;;;21.10;99.90;;;;;;4977073;28;20418;-81
2022/08/03 07:57:31;;;;;;;8.60;3.33;;;21.30;99.90;;;;;;4956627;28;20034;-82
2022/08/03 07:59:57;;;;;;;10.20;3.22;;;21.30;99.90;;;;;;4973052;28;20037;-81
2022/08/03 08:02:22;;;;;;;10.85;3.35;;;21.40;99.90;;;;;;4977393;28;20038;-81
2022/08/03 08:04:48;;;;;;;10.35;3.90;;;21.40;99.90;;;;;;4977398;28;20139;-81
2022/08/03 08:07:14;;;;;;;10.00;3.55;;;21.50;99.90;;;;;;4972833;28;20089;-81
2022/08/03 08:09:39;;;;;;;11.73;3.28;;;21.50;99.90;;;;;;4978662;28;20046;-81
2022/08/03 08:12:06;;;;;;;8.90;2.58;;;21.60;99.90;;;;;;4979639;28;20410;-81
2022/08/03 08:14:33;;;;;;;7.65;3.20;;;21.80;99.90;;;;;;4996511;28;20048;-81
2022/08/03 08:16:58;;;;;;;9.65;3.08;;;21.90;99.90;;;;;;4989110;28;20549;-81
2022/08/03 08:19:24;;;;;;;7.60;3.10;;;22.10;99.90;;;;;;4987875;28;20173;-81
2022/08/03 08:21:49;;;;;;;8.80;2.88;;;22.60;99.90;;;;;;4997491;28;20493;-81
2022/08/03 08:24:15;;;;;;;10.88;2.67;;;23.40;99.90;;;;;;4980546;28;20041;-81
2022/08/03 08:26:41;;;;;;;8.38;2.35;;;24.20;99.90;;;;;;4972271;28;20512;-82
2022/08/03 08:29:06;;;;;;;7.72;2.30;;;24.90;99.90;;;;;;4996256;28;20041;-82
2022/08/03 08:31:32;;;;;;;10.45;2.50;;;25.60;99.90;;;;;;4993468;28;20045;-81
2022/08/03 08:33:57;;;;;;;7.72;2.22;;;26.20;99.90;;;;;;4993281;28;20519;-81
2022/08/03 08:36:23;;;;;;;7.85;2.42;;;26.80;99.90;;;;;;4993385;28;20418;-82
2022/08/03 08:38:49;;;;;;;8.85;2.25;;;27.40;99.90;;;;;;4986889;28;20511;-82
2022/08/03 08:41:15;;;;;;;9.07;2.20;;;27.90;99.90;;;;;;4999092;28;20026;-81
2022/08/03 08:43:42;;;;;;;7.57;2.20;;;28.30;99.90;;;;;;4998455;28;20056;-81
2022/08/03 08:46:11;;;;;;;10.05;2.47;;;28.70;99.90;;;;;;4974443;28;20042;-82
2022/08/03 08:48:40;;;;;;;5.60;2.05;;;29.00;99.90;;;;;;4981140;28;20038;-82
2022/08/03 08:51:09;;;;;;;6.63;1.58;;;29.40;99.90;;;;;;4994903;28;20064;-82
2022/08/03 08:53:37;;;;;;;9.65;2.20;;;29.70;99.90;;;;;;4987909;28;20041;-80
2022/08/03 08:56:04;;;;;;;7.10;2.00;;;30.00;99.90;;;;;;4990364;28;20038;-79
2022/08/03 08:58:36;;;;;;;11.07;2.28;;;30.10;99.90;;;;;;5004021;28;20061;-80
2022/08/03 09:01:02;;;;;;;6.97;1.98;;;30.10;99.90;;;;;;4997502;28;20030;-80
2022/08/03 09:03:28;;;;;;;7.40;1.73;;;30.20;99.90;;;;;;4983952;28;20463;-80
2022/08/03 09:05:54;;;;;;;7.45;1.80;;;30.30;99.90;;;;;;4991888;28;20041;-79
2022/08/03 09:08:21;;;;;;;6.53;1.52;;;30.40;99.90;;;;;;4978665;28;20510;-79
2022/08/03 09:10:47;;;;;;;7.13;1.60;;;30.40;99.90;;;;;;4995668;28;20486;-79
2022/08/03 09:13:13;;;;;;;5.40;1.38;;;30.30;98.30;;;;;;4993882;28;20045;-79
2022/08/03 09:15:41;;;;;;;4.03;1.52;;;30.40;97.80;;;;;;4999775;28;20038;-79
2022/08/03 09:18:08;;;;;;;7.40;2.00;;;30.40;97.20;;;;;;4966088;28;20085;-79
2022/08/03 09:20:35;;;;;;;7.05;1.70;;;30.50;96.40;;;;;;4978513;28;20038;-79
2022/08/03 09:23:09;;;;;;;6.53;1.48;;;30.50;94.90;;;;;;4991498;28;20518;-79
2022/08/03 09:25:41;;;;;;;4.07;1.40;;;30.50;92.10;;;;;;4979457;28;20069;-79
2022/08/03 09:28:09;;;;;;;6.13;1.60;;;30.60;92.00;;;;;;4974164;28;20069;-79
2022/08/03 09:30:36;;;;;;;6.70;1.63;;;30.60;92.00;;;;;;4976257;28;20042;-79
2022/08/03 09:33:05;;;;;;;6.40;1.70;;;30.60;92.50;;;;;;4993572;28;20486;-79
2022/08/03 09:35:30;;;;;;;6.35;1.80;;;30.60;90.00;;;;;;4979186;28;20069;-79
2022/08/03 09:38:14;;;;;;;6.20;1.27;;;30.50;90.30;;;;;;4993128;28;20124;-79
2022/08/03 09:40:40;;;;;;;10.23;1.90;;;30.40;85.90;;;;;;4995302;28;20048;-79
2022/08/03 09:43:07;;;;;;;9.05;1.60;;;30.50;91.00;;;;;;4995348;28;20038;-79
2022/08/03 09:45:36;;;;;;;5.65;1.70;;;30.60;90.30;;;;;;4982033;28;20089;-79
2022/08/03 09:48:33;;;;;;;6.90;1.80;;;30.70;90.50;;;;;;4995012;28;20124;-79
2022/08/03 09:51:02;;;;;;;6.10;1.70;;;30.80;82.80;;;;;;4966753;28;20130;-79
2022/08/03 09:53:28;;;;;;;5.43;1.90;;;30.80;86.90;;;;;;4991310;28;20402;-79
2022/08/03 09:56:00;;;;;;;9.63;1.92;;;30.90;87.90;;;;;;4978787;28;20038;-79
2022/08/03 09:58:28;;;;;;;7.05;1.92;;;30.90;85.60;;;;;;4974745;28;20493;-79
2022/08/03 10:01:02;;;;;;;4.93;1.55;;;31.00;85.10;;;;;;5009178;28;20038;-79
2022/08/03 10:03:34;;;;;;;7.10;2.00;;;31.20;85.10;;;;;;4987751;28;20034;-80
2022/08/03 10:06:15;;;;;;;7.20;1.90;;;31.40;82.80;;;;;;4970250;28;20525;-79
2022/08/03 10:08:40;;;;;;;8.15;1.85;;;31.50;78.40;;;;;;4977633;28;20486;-79
2022/08/03 10:11:06;;;;;;;8.10;2.00;;;31.60;82.10;;;;;;4976612;28;20044;-79
2022/08/03 10:13:32;;;;;;;7.75;1.88;;;31.60;81.10;;;;;;4977092;28;20039;-79
2022/08/03 10:15:58;;;;;;;7.55;2.10;;;31.60;80.80;;;;;;4992805;28;20034;-79
2022/08/03 10:18:23;;;;;;;6.00;1.95;;;31.70;80.20;;;;;;4972557;28;20189;-79
2022/08/03 10:20:53;;;;;;;6.32;1.88;;;31.70;78.80;;;;;;4976966;28;20077;-79
2022/08/03 10:23:20;;;;;;;9.55;2.15;;;31.60;77.80;;;;;;4984057;28;20034;-78
2022/08/03 10:25:48;;;;;;;7.45;1.70;;;31.50;78.00;;;;;;4978541;28;20041;-79
2022/08/03 10:28:17;;;;;;;7.88;2.00;;;31.50;78.40;;;;;;4993617;28;20048;-79
2022/08/03 10:30:46;;;;;;;6.22;1.80;;;31.50;76.30;;;;;;5000615;28;20120;-79
2022/08/03 10:33:17;;;;;;;8.05;2.28;;;31.60;76.60;;;;;;4998781;28;20048;-79
2022/08/03 10:35:44;;;;;;;6.43;1.85;;;31.60;75.80;;;;;;4972564;28;20128;-79
2022/08/03 10:38:15;;;;;;;11.60;2.08;;;31.60;76.20;;;;;;4976522;28;20038;-78
2022/08/03 10:40:42;;;;;;;8.90;1.90;;;31.70;75.20;;;;;;4990689;28;20089;-79
2022/08/03 10:43:33;;;;;;;7.90;1.80;;;31.70;75.20;;;;;;4994230;28;20041;-78
2022/08/03 10:46:01;;;;;;;6.55;2.22;;;31.90;74.50;;;;;;4991601;28;20470;-78
2022/08/03 10:48:27;;;;;;;6.80;1.90;;;32.10;75.50;;;;;;4989450;28;20034;-77
2022/08/03 10:50:53;;;;;;;8.02;1.85;;;32.30;74.50;;;;;;4992680;28;20048;-78
2022/08/03 10:53:36;;;;;;;7.05;1.70;;;32.40;73.30;;;;;;4975512;28;20041;-78
2022/08/03 10:58:51;;;;;;;7.20;1.35;;;32.60;73.20;;;;;;4993280;28;20164;-79
2022/08/03 11:01:19;;;;;;;11.32;2.72;;;32.70;72.20;;;;;;4978296;28;20034;-80
2022/08/03 11:03:53;;;;;;;6.93;1.95;;;32.90;71.70;;;;;;4971825;28;20482;-79
2022/08/03 11:06:26;;;;;;;9.30;1.83;;;33.00;70.20;;;;;;5005362;28;20048;-80
2022/08/03 11:09:09;;;;;;;5.13;1.60;;;33.30;70.50;;;;;;4984948;28;20088;-78
2022/08/03 11:11:40;;;;;;;9.82;1.85;;;33.40;69.90;;;;;;4982129;28;21063;-79
2022/08/03 11:14:20;;;;;;;7.18;1.80;;;33.50;70.10;;;;;;5002400;28;20402;-78
2022/08/03 11:16:48;;;;;;;8.90;2.00;;;33.60;69.90;;;;;;4994460;28;20045;-80
2022/08/03 11:19:21;;;;;;;9.90;2.20;;;33.60;69.20;;;;;;4993162;28;20045;-80
2022/08/03 11:21:50;;;;;;;8.00;1.90;;;33.70;68.50;;;;;;4981937;28;20038;-79
2022/08/03 11:24:53;;;;;;;9.13;1.90;;;33.70;68.80;;;;;;4990778;28;20091;-78
2022/08/03 11:27:30;;;;;;;8.38;2.13;;;33.80;68.30;;;;;;4908640;29;20047;-78
2022/08/03 11:30:04;;;;;;;7.60;1.90;;;33.80;68.40;;;;;;4966352;28;20126;-78
2022/08/03 11:32:36;;;;;;;5.20;1.55;;;33.80;67.40;;;;;;4960487;28;20065;-78
2022/08/03 11:35:22;;;;;;;9.77;1.65;;;33.90;67.80;;;;;;4981842;28;20049;-79
2022/08/03 11:38:00;;;;;;;9.18;2.25;;;33.90;67.40;;;;;;4966391;28;20072;-79
2022/08/03 11:40:40;;;;;;;5.72;1.40;;;34.00;66.90;;;;;;4990898;28;20494;-78
2022/08/03 11:43:22;;;;;;;8.50;1.83;;;34.10;64.80;;;;;;4977592;28;20117;-79
2022/08/03 11:46:20;;;;;;;6.63;1.50;;;34.10;67.20;;;;;;4987672;28;20529;-78
2022/08/03 11:48:50;;;;;;;6.55;1.38;;;34.20;64.80;;;;;;4986952;28;20052;-78
2022/08/03 11:51:20;;;;;;;7.50;1.60;;;34.20;66.00;;;;;;4996009;28;20033;-78
2022/08/03 11:53:46;;;;;;;5.72;1.98;;;34.20;66.40;;;;;;4994021;28;20042;-78
2022/08/03 11:56:12;;;;;;;7.28;1.38;;;34.30;65.60;;;;;;4986255;28;20066;-78
2022/08/03 11:58:47;;;;;;;7.30;1.60;;;34.30;64.80;;;;;;4992821;28;20048;-78
2022/08/03 12:01:15;;;;;;;7.93;1.88;;;34.40;64.30;;;;;;4994798;28;20038;-78
2022/08/03 12:03:41;;;;;;;6.60;2.17;;;34.50;64.10;;;;;;4979303;28;20045;-78
2022/08/03 12:06:10;;;;;;;4.45;1.50;;;34.50;63.90;;;;;;4996555;28;20552;-78
2022/08/03 12:08:36;;;;;;;5.53;1.67;;;34.50;63.40;;;;;;4985496;28;20046;-78
2022/08/03 12:11:07;;;;;;;7.38;1.35;;;34.40;63.80;;;;;;4994763;28;20064;-78
2022/08/03 12:13:45;;;;;;;7.53;1.50;;;34.40;63.00;;;;;;4979099;28;20546;-78
2022/08/03 12:16:20;;;;;;;9.18;1.50;;;34.30;62.20;;;;;;4993675;28;20041;-78
2022/08/03 12:19:00;;;;;;;5.60;1.45;;;34.10;62.50;;;;;;5003880;28;20033;-77
2022/08/03 12:21:26;;;;;;;5.65;1.30;;;34.10;61.90;;;;;;4996076;28;20073;-79
2022/08/03 12:24:00;;;;;;;7.10;1.60;;;34.10;63.20;;;;;;4993549;28;20042;-80
2022/08/03 12:26:27;;;;;;;8.02;1.35;;;34.10;62.50;;;;;;4991300;28;20045;-80
2022/08/03 12:28:52;;;;;;;5.63;1.38;;;34.10;63.10;;;;;;4986272;28;20406;-79
2022/08/03 12:31:18;;;;;;;5.95;1.55;;;34.10;63.00;;;;;;5001898;28;20045;-79
2022/08/03 12:34:05;;;;;;;8.02;1.52;;;34.10;62.70;;;;;;4986820;28;20040;-79
2022/08/03 12:36:32;;;;;;;5.90;1.55;;;34.10;59.90;;;;;;5007117;28;20038;-77
2022/08/03 12:39:04;;;;;;;5.20;1.13;;;34.10;61.70;;;;;;4987332;28;20402;-78
2022/08/03 12:41:33;;;;;;;7.78;1.50;;;34.10;61.30;;;;;;4991367;28;20052;-78
2022/08/03 12:43:59;;;;;;;5.32;1.40;;;34.10;61.70;;;;;;4987352;28;20033;-78
2022/08/03 12:46:31;;;;;;;5.93;1.17;;;34.20;62.00;;;;;;4979846;28;20049;-78
2022/08/03 12:49:13;;;;;;;10.43;1.60;;;34.10;60.80;;;;;;4960549;28;20524;-78
2022/08/03 12:51:42;;;;;;;8.43;1.65;;;34.10;58.90;;;;;;4991203;28;20046;-78
2022/08/03 12:54:18;;;;;;;7.85;1.63;;;34.00;62.30;;;;;;4979932;28;20053;-78
2022/08/03 12:57:00;;;;;;;4.68;1.27;;;34.10;61.80;;;;;;4993678;28;20038;-79
2022/08/03 12:59:31;;;;;;;9.37;1.40;;;34.10;60.30;;;;;;4994839;28;20049;-78
2022/08/03 13:01:57;;;;;;;6.63;1.25;;;34.10;61.00;;;;;;4996500;28;20036;-79
2022/08/03 13:04:34;;;;;;;5.47;1.67;;;34.10;60.80;;;;;;4994938;28;20056;-78
2022/08/03 13:07:05;;;;;;;5.60;1.42;;;34.10;60.60;;;;;;4978779;28;20033;-78
2022/08/03 13:09:43;;;;;;;6.95;1.40;;;34.10;60.50;;;;;;4986401;28;20042;-79
2022/08/03 13:12:13;;;;;;;5.53;1.67;;;34.20;58.40;;;;;;4992599;28;20042;-79
2022/08/03 13:14:39;;;;;;;6.53;1.75;;;34.10;58.70;;;;;;4994712;28;20045;-78
2022/08/03 13:17:05;;;;;;;5.97;1.67;;;34.20;59.90;;;;;;4975895;28;20030;-78
2022/08/03 13:19:35;;;;;;;6.63;1.27;;;34.30;60.40;;;;;;4997881;28;20033;-78
2022/08/03 13:22:15;;;;;;;5.50;1.30;;;34.30;60.80;;;;;;4994974;28;20497;-78
2022/08/03 13:24:42;;;;;;;5.53;1.42;;;34.40;59.60;;;;;;4995206;28;20137;-78
2022/08/03 13:27:08;;;;;;;8.18;1.83;;;34.40;60.30;;;;;;4991256;28;20038;-78
2022/08/03 13:29:34;;;;;;;4.72;1.52;;;34.40;60.30;;;;;;4979034;28;20239;-78
2022/08/03 13:32:01;;;;;;;4.45;0.95;;;34.40;60.00;;;;;;4979441;28;20437;-78
2022/08/03 13:34:26;;;;;;;5.63;1.35;;;34.10;59.60;;;;;;4978281;28;20045;-78
2022/08/03 13:36:53;;;;;;;6.22;1.67;;;33.90;60.30;;;;;;4992977;28;20030;-78
2022/08/03 13:39:21;;;;;;;6.97;2.25;;;33.80;60.80;;;;;;4994920;28;20034;-79
2022/08/03 13:41:47;;;;;;;5.97;1.30;;;33.70;61.20;;;;;;4994226;28;20042;-78
2022/08/03 13:44:13;;;;;;;5.97;1.15;;;33.60;60.40;;;;;;4994846;28;20046;-78
2022/08/03 13:46:38;;;;;;;6.30;1.38;;;33.40;61.00;;;;;;4994839;28;20060;-78
2022/08/03 13:49:05;;;;;;;5.82;1.30;;;33.40;61.90;;;;;;4991757;28;20050;-78
2022/08/03 13:51:31;;;;;;;6.75;1.40;;;33.40;62.20;;;;;;4983686;28;20073;-78
2022/08/03 13:53:58;;;;;;;6.72;1.45;;;33.30;61.70;;;;;;5001434;28;20434;-78
2022/08/03 13:56:24;;;;;;;4.60;1.73;;;33.30;62.00;;;;;;4988133;28;20057;-78
2022/08/03 13:58:50;;;;;;;3.70;1.35;;;33.30;61.70;;;;;;4994705;28;20046;-78
2022/08/03 14:01:16;;;;;;;3.17;1.25;;;33.10;61.30;;;;;;4987293;28;20505;-77